createdAt,value
2023-02-08T13:26:58.012Z,82.30
2023-02-08T13:29:28.132Z,81.20
2023-02-08T13:32:08.163Z,79.20
2023-02-08T13:34:43.076Z,83.20
2023-02-08T13:37:25.712Z,83.40
2023-02-08T13:40:21.397Z,85.80
2023-02-08T13:42:58.325Z,85.80
2023-02-08T13:45:37.627Z,85.70
2023-02-08T13:48:11.422Z,84.60
2023-02-08T13:50:43.216Z,84.40
2023-02-08T13:53:10.966Z,87.10
2023-02-08T13:55:59.965Z,86.70
2023-02-08T13:58:49.054Z,86.80
2023-02-08T14:01:28.660Z,85.40
2023-02-08T14:04:07.599Z,84.90
2023-02-08T14:06:39.457Z,86.90
2023-02-08T14:09:21.002Z,82.70
2023-02-08T14:12:04.405Z,82.20
2023-02-08T14:14:38.494Z,81.80
2023-02-08T14:17:05.049Z,81.80
2023-02-08T14:19:37.180Z,82.40
2023-02-08T14:22:17.759Z,82.80
2023-02-08T14:25:08.041Z,83.90
2023-02-08T14:27:52.201Z,84.30
2023-02-08T14:30:18.824Z,83.20
2023-02-08T14:33:06.261Z,83.90
2023-02-08T14:35:37.449Z,83.80
2023-02-08T14:38:32.917Z,84.00
2023-02-08T14:41:01.900Z,84.30
2023-02-08T14:43:33.418Z,84.80
2023-02-08T14:46:38.835Z,83.70
2023-02-08T14:49:14.562Z,84.40
2023-02-08T14:51:46.899Z,84.90
2023-02-08T14:54:48.070Z,84.90
2023-02-08T14:57:28.335Z,84.90
2023-02-08T14:59:59.632Z,85.10
2023-02-08T15:02:31.742Z,85.40
2023-02-08T15:04:59.773Z,86.20
2023-02-08T15:07:57.553Z,86.20
2023-02-08T15:10:26.628Z,86.50
2023-02-08T15:12:57.606Z,86.60
2023-02-08T15:15:37.227Z,85.70
2023-02-08T15:18:06.819Z,85.70
2023-02-08T15:20:35.658Z,86.10
2023-02-08T15:23:02.221Z,86.40
2023-02-08T15:25:30.180Z,86.10
2023-02-08T15:27:59.760Z,86.30
2023-02-08T15:30:33.190Z,85.70
2023-02-08T15:33:02.412Z,85.80
2023-02-08T15:35:31.664Z,86.30
2023-02-08T15:37:58.964Z,86.20
2023-02-08T15:40:35.470Z,86.20
2023-02-08T15:43:13.198Z,86.60
2023-02-08T15:45:40.275Z,87.60
2023-02-08T15:48:07.690Z,88.30
2023-02-08T15:50:35.544Z,88.80
2023-02-08T15:53:05.258Z,89.10
2023-02-08T15:55:44.726Z,89.80
2023-02-08T15:58:34.567Z,90.30
2023-02-08T16:01:03.102Z,90.60
2023-02-08T16:03:30.966Z,90.50
2023-02-08T16:06:01.570Z,90.30
2023-02-08T16:08:36.412Z,90.50
2023-02-08T16:11:15.113Z,90.20
2023-02-08T16:13:47.987Z,90.10
2023-02-08T16:16:42.988Z,89.80
2023-02-08T16:19:30.283Z,88.10
2023-02-08T16:22:20.869Z,86.80
2023-02-08T16:24:50.679Z,87.30
2023-02-08T16:27:30.883Z,87.40
2023-02-08T16:29:58.989Z,87.90
2023-02-08T16:32:30.611Z,88.30
2023-02-08T16:34:58.400Z,88.80
2023-02-08T16:37:32.709Z,89.30
2023-02-08T16:40:36.719Z,90.00
2023-02-08T16:43:33.099Z,90.10
2023-02-08T16:46:14.727Z,90.40
2023-02-08T16:48:49.902Z,90.60
2023-02-08T16:51:31.936Z,90.70
2023-02-08T16:54:09.080Z,91.10
2023-02-08T16:56:36.669Z,91.40
2023-02-08T16:59:03.743Z,91.40
2023-02-08T17:01:30.773Z,91.70
2023-02-08T17:03:57.682Z,92.10
2023-02-08T17:06:29.151Z,92.40
2023-02-08T17:09:00.068Z,92.60
2023-02-08T17:11:27.391Z,92.60
2023-02-08T17:13:54.582Z,93.00
2023-02-08T17:16:26.987Z,93.30
2023-02-08T17:18:54.072Z,93.30
2023-02-08T17:21:21.135Z,93.90
2023-02-08T17:23:47.957Z,93.80
2023-02-08T17:26:22.179Z,93.90
2023-02-08T17:28:50.209Z,93.90
2023-02-08T17:31:17.106Z,94.50
2023-02-08T17:33:44.046Z,94.60
2023-02-08T17:36:13.123Z,94.50
2023-02-08T17:38:41.313Z,94.70
2023-02-08T17:41:13.031Z,94.80
2023-02-08T17:43:39.625Z,95.00
2023-02-08T17:46:15.164Z,95.30
2023-02-08T17:48:42.118Z,95.60
2023-02-08T17:51:16.205Z,95.80
2023-02-08T17:53:44.133Z,96.10
2023-02-08T17:56:16.432Z,96.80
2023-02-08T17:58:43.241Z,97.00
2023-02-08T18:01:17.345Z,97.50
2023-02-08T18:03:45.452Z,97.80
2023-02-08T18:06:12.778Z,98.30
2023-02-08T18:08:40.318Z,98.50
2023-02-08T18:11:23.167Z,98.60
2023-02-08T18:13:52.165Z,98.50
2023-02-08T18:16:28.298Z,98.50
2023-02-08T18:18:56.828Z,99.00
2023-02-08T18:21:25.758Z,99.70
2023-02-08T18:23:53.034Z,99.90
2023-02-08T18:26:22.082Z,99.90
2023-02-08T18:28:50.479Z,99.90
2023-02-08T18:31:20.065Z,99.90
2023-02-08T18:33:48.625Z,99.90
2023-02-08T18:36:16.315Z,99.90
2023-02-08T18:38:45.861Z,99.90
2023-02-08T18:41:16.738Z,99.90
2023-02-08T18:43:43.561Z,99.90
2023-02-08T18:46:15.024Z,99.90
2023-02-08T18:48:42.182Z,99.90
2023-02-08T18:51:10.503Z,99.90
